^^
Grace C. Lehan Memorial Weather Station Historical Data
Daily Summary for July 17, 2021 Units:  Both    English   Metric
Daily Weekly Monthly Yearly
  High: Low: Average:
Temperature: 79 °F /  26.1 °C 51.1 °F /  10.6 °C 69.5 °F /  20.8 °C
Dew Point: 54.3 °F /  12.4 °C 43.9 °F /  6.6 °C 48.2 °F /  9 °C
Humidity: 83% 31.8% 49%
Wind Speed: 5.6mph /  9km/h - 0.9mph /  1.4km/h
Wind Gust: 15mph /  24.1km/h - -
Wind- - WNW
Pressure: 29.97 in /  1014.8 hPa 29.89 in /  1012.1 hPa -
Precipitation: 0.00 in /  0 mm    
 
 
Tabular Data for July 17, 2021
Time Temperature Dew Point Pressure Wind Wind Speed Wind Gust Humidity Rainfall Rate (Hourly) solar
00:09 61.1 °F /  16.2 °C 44.6 °F /  7 °C 29.90in /  1012.4hPa NW 1.2mph /  1.9km/h 6mph /  9.7km/h 54.6% 0.00in /  0mm 0 W/m2
00:14 61 °F /  16.1 °C 44.3 °F /  6.8 °C 29.90in /  1012.4hPa NW 0.1mph /  0.2km/h 6mph /  9.7km/h 54% 0.00in /  0mm 0 W/m2
00:19 60.9 °F /  16.1 °C 44.2 °F /  6.8 °C 29.90in /  1012.4hPa NW 0.9mph /  1.4km/h 7mph /  11.3km/h 54% 0.00in /  0mm 0 W/m2
00:24 60.9 °F /  16.1 °C 44.2 °F /  6.8 °C 29.90in /  1012.4hPa NW 1.7mph /  2.7km/h 11mph /  17.7km/h 54% 0.00in /  0mm 0 W/m2
00:29 60.9 °F /  16.1 °C 44.2 °F /  6.8 °C 29.90in /  1012.4hPa WNW 1.3mph /  2.1km/h 11mph /  17.7km/h 54% 0.00in /  0mm 0 W/m2
00:30 60.9 °F /  16.1 °C 44.2 °F /  6.8 °C 29.90in /  1012.4hPa NW 1mph /  1.6km/h 11mph /  17.7km/h 54% 0.00in /  0mm 0 W/m2
01:00 60.6 °F /  15.9 °C 44.4 °F /  6.9 °C 29.90in /  1012.4hPa Calm   12mph /  19.3km/h 55% 0.00in /  0mm 0 W/m2
01:30 59.4 °F /  15.2 °C 45.1 °F /  7.3 °C 29.90in /  1012.4hPa Calm     59% 0.00in /  0mm 0 W/m2
02:30 57.7 °F /  14.3 °C 43.9 °F /  6.6 °C 29.90in /  1012.4hPa Calm   1mph /  1.6km/h 60% 0.00in /  0mm 0 W/m2
03:00 56.9 °F /  13.8 °C 44 °F /  6.7 °C 29.90in /  1012.4hPa Calm     62% 0.00in /  0mm 0 W/m2
03:30 55.8 °F /  13.2 °C 45 °F /  7.2 °C 29.90in /  1012.4hPa Calm     67% 0.00in /  0mm 0 W/m2
04:04 53.9 °F /  12.2 °C 45.1 °F /  7.3 °C 29.89in /  1012.1hPa Calm     72% 0.00in /  0mm 0 W/m2
04:09 53.8 °F /  12.1 °C 45.1 °F /  7.3 °C 29.89in /  1012.1hPa Calm     72.4% 0.00in /  0mm 0 W/m2
04:14 53.6 °F /  12 °C 45.1 °F /  7.3 °C 29.89in /  1012.1hPa Calm   1mph /  1.6km/h 73% 0.00in /  0mm 0 W/m2
04:19 53.3 °F /  11.8 °C 45.3 °F /  7.4 °C 29.89in /  1012.1hPa Calm   1mph /  1.6km/h 74% 0.00in /  0mm 0 W/m2
04:24 53.2 °F /  11.8 °C 45.1 °F /  7.3 °C 29.90in /  1012.4hPa Calm   1mph /  1.6km/h 74% 0.00in /  0mm 0 W/m2
04:29 53 °F /  11.7 °C 45 °F /  7.2 °C 29.90in /  1012.4hPa Calm   1mph /  1.6km/h 74% 0.00in /  0mm 0 W/m2
04:34 52.9 °F /  11.6 °C 44.8 °F /  7.1 °C 29.90in /  1012.4hPa Calm   1mph /  1.6km/h 74% 0.00in /  0mm 0 W/m2
04:39 52.8 °F /  11.6 °C 44.9 °F /  7.2 °C 29.90in /  1012.4hPa Calm     74.6% 0.00in /  0mm 0 W/m2
04:44 52.6 °F /  11.4 °C 45.1 °F /  7.3 °C 29.90in /  1012.4hPa Calm     75.5% 0.00in /  0mm 0 W/m2
04:49 52.5 °F /  11.4 °C 45.2 °F /  7.3 °C 29.90in /  1012.4hPa Calm     76% 0.00in /  0mm 0 W/m2
04:54 52.4 °F /  11.3 °C 45 °F /  7.2 °C 29.90in /  1012.4hPa Calm     76% 0.00in /  0mm 0 W/m2
04:59 52.2 °F /  11.2 °C 44.9 °F /  7.2 °C 29.90in /  1012.4hPa Calm     76% 0.00in /  0mm 0 W/m2
05:04 52.1 °F /  11.2 °C 45 °F /  7.2 °C 29.90in /  1012.4hPa Calm     76.6% 0.00in /  0mm 0 W/m2
05:09 51.9 °F /  11.1 °C 45.1 °F /  7.3 °C 29.90in /  1012.4hPa Calm     77.4% 0.00in /  0mm 0 W/m2
05:14 51.7 °F /  10.9 °C 45.2 °F /  7.3 °C 29.91in /  1012.8hPa Calm     78.2% 0.00in /  0mm 0 W/m2
05:19 51.5 °F /  10.8 °C 45.5 °F /  7.5 °C 29.91in /  1012.8hPa Calm     79.7% 0.00in /  0mm 0 W/m2
05:24 51.4 °F /  10.8 °C 45.5 °F /  7.5 °C 29.91in /  1012.8hPa Calm     80.2% 0.00in /  0mm 0 W/m2
05:29 51.3 °F /  10.7 °C 45.7 °F /  7.6 °C 29.91in /  1012.8hPa Calm     81% 0.00in /  0mm 5 W/m2
05:34 51.2 °F /  10.7 °C 45.6 °F /  7.6 °C 29.91in /  1012.8hPa Calm     81% 0.00in /  0mm 7 W/m2
05:39 51.2 °F /  10.7 °C 45.6 °F /  7.6 °C 29.91in /  1012.8hPa Calm     81% 0.00in /  0mm 9 W/m2
05:44 51.1 °F /  10.6 °C 45.5 °F /  7.5 °C 29.91in /  1012.8hPa Calm     81.1% 0.00in /  0mm 11 W/m2
05:49 51.1 °F /  10.6 °C 45.5 °F /  7.5 °C 29.91in /  1012.8hPa Calm     81% 0.00in /  0mm 14 W/m2
05:54 51.2 °F /  10.7 °C 45.8 °F /  7.7 °C 29.91in /  1012.8hPa Calm     81.7% 0.00in /  0mm 18 W/m2
05:59 51.2 °F /  10.7 °C 45.6 °F /  7.6 °C 29.92in /  1013.1hPa Calm     81.2% 0.00in /  0mm 18 W/m2
06:04 51.3 °F /  10.7 °C 46 °F /  7.8 °C 29.92in /  1013.1hPa Calm     82% 0.00in /  0mm 19 W/m2
06:09 51.5 °F /  10.8 °C 46.5 °F /  8.1 °C 29.92in /  1013.1hPa North 0.2mph /  0.3km/h 2mph /  3.2km/h 83% 0.00in /  0mm 19 W/m2
06:14 51.7 °F /  10.9 °C 46.4 °F /  8 °C 29.92in /  1013.1hPa Calm   2mph /  3.2km/h 82.2% 0.00in /  0mm 21 W/m2
06:19 51.8 °F /  11 °C 46.3 °F /  7.9 °C 29.92in /  1013.1hPa Calm   2mph /  3.2km/h 81.4% 0.00in /  0mm 21 W/m2
06:24 52.1 °F /  11.2 °C 46.4 °F /  8 °C 29.92in /  1013.1hPa Calm   2mph /  3.2km/h 80.8% 0.00in /  0mm 26 W/m2
06:29 52.5 °F /  11.4 °C 46.5 °F /  8.1 °C 29.92in /  1013.1hPa Calm   2mph /  3.2km/h 80% 0.00in /  0mm 35 W/m2
06:34 52.9 °F /  11.6 °C 46.6 °F /  8.1 °C 29.92in /  1013.1hPa Calm   2mph /  3.2km/h 79% 0.00in /  0mm 46 W/m2
06:39 53.4 °F /  11.9 °C 46.9 °F /  8.3 °C 29.92in /  1013.1hPa Calm     78.5% 0.00in /  0mm 49 W/m2
06:44 54 °F /  12.2 °C 47.3 °F /  8.5 °C 29.92in /  1013.1hPa Calm     78% 0.00in /  0mm 60 W/m2
06:49 54.9 °F /  12.7 °C 47.8 °F /  8.8 °C 29.92in /  1013.1hPa Calm     77% 0.00in /  0mm 69 W/m2
06:54 56 °F /  13.3 °C 48.3 °F /  9.1 °C 29.92in /  1013.1hPa Calm     75.3% 0.00in /  0mm 70 W/m2
06:59 57.3 °F /  14.1 °C 48.5 °F /  9.2 °C 29.92in /  1013.1hPa Calm     72.3% 0.00in /  0mm 72 W/m2
07:04 58.7 °F /  14.8 °C 49.3 °F /  9.6 °C 29.93in /  1013.4hPa Calm     70.8% 0.00in /  0mm 74 W/m2
07:09 60.1 °F /  15.6 °C 50.1 °F /  10.1 °C 29.93in /  1013.4hPa Calm     69.4% 0.00in /  0mm 76 W/m2
07:14 61.4 °F /  16.3 °C 50.2 °F /  10.1 °C 29.93in /  1013.4hPa Calm     66.8% 0.00in /  0mm 76 W/m2
07:19 62.4 °F /  16.9 °C 50.3 °F /  10.2 °C 29.93in /  1013.4hPa Calm     64.6% 0.00in /  0mm 77 W/m2
07:24 63.3 °F /  17.4 °C 50.6 °F /  10.3 °C 29.93in /  1013.4hPa Calm     63.2% 0.00in /  0mm 308 W/m2
07:29 64.1 °F /  17.8 °C 50.4 °F /  10.2 °C 29.93in /  1013.4hPa Calm     61% 0.00in /  0mm 357 W/m2
07:34 64.8 °F /  18.2 °C 50.5 °F /  10.3 °C 29.93in /  1013.4hPa Calm     59.8% 0.00in /  0mm 373 W/m2
07:39 65.4 °F /  18.6 °C 50.9 °F /  10.5 °C 29.93in /  1013.4hPa Calm     59.4% 0.00in /  0mm 392 W/m2
07:44 66 °F /  18.9 °C 51.1 °F /  10.6 °C 29.93in /  1013.4hPa Calm     58.7% 0.00in /  0mm 415 W/m2
07:49 66.4 °F /  19.1 °C 51 °F /  10.6 °C 29.93in /  1013.4hPa Calm     57.6% 0.00in /  0mm 432 W/m2
07:54 66.8 °F /  19.3 °C 50.5 °F /  10.3 °C 29.94in /  1013.8hPa Calm     55.9% 0.00in /  0mm 450 W/m2
07:59 67.3 °F /  19.6 °C 50.6 °F /  10.3 °C 29.94in /  1013.8hPa Calm     55.1% 0.00in /  0mm 466 W/m2
08:04 67.3 °F /  19.6 °C 50.6 °F /  10.3 °C 29.93in /  1013.4hPa Calm     55% 0.00in /  0mm 480 W/m2
08:09 67.5 °F /  19.7 °C 51.1 °F /  10.6 °C 29.94in /  1013.8hPa Calm   1mph /  1.6km/h 55.6% 0.00in /  0mm 497 W/m2
08:14 68 °F /  20 °C 49.8 °F /  9.9 °C 29.93in /  1013.4hPa NNW 0.7mph /  1.1km/h 5mph /  8km/h 52.1% 0.00in /  0mm 517 W/m2
08:19 68.6 °F /  20.3 °C 49.5 °F /  9.7 °C 29.93in /  1013.4hPa NNW 0.7mph /  1.1km/h 5mph /  8km/h 50.5% 0.00in /  0mm 533 W/m2
08:24 69.1 °F /  20.6 °C 50.5 °F /  10.3 °C 29.94in /  1013.8hPa NW 1mph /  1.6km/h 5mph /  8km/h 51.4% 0.00in /  0mm 550 W/m2
08:29 69.5 °F /  20.8 °C 49.7 °F /  9.8 °C 29.94in /  1013.8hPa WNW 1.7mph /  2.7km/h 6mph /  9.7km/h 49.4% 0.00in /  0mm 566 W/m2
08:34 69.6 °F /  20.9 °C 49.9 °F /  9.9 °C 29.94in /  1013.8hPa WNW 2mph /  3.2km/h 6mph /  9.7km/h 49.4% 0.00in /  0mm 580 W/m2
08:39 69.9 °F /  21.1 °C 51 °F /  10.6 °C 29.94in /  1013.8hPa WNW 0.2mph /  0.3km/h 5mph /  8km/h 51.2% 0.00in /  0mm 596 W/m2
08:44 70.2 °F /  21.2 °C 50.8 °F /  10.4 °C 29.94in /  1013.8hPa WNW 0.6mph /  1km/h 5mph /  8km/h 50.1% 0.00in /  0mm 612 W/m2
08:49 70.5 °F /  21.4 °C 51.7 °F /  10.9 °C 29.94in /  1013.8hPa WNW 0.1mph /  0.2km/h 5mph /  8km/h 51.4% 0.00in /  0mm 628 W/m2
08:54 70.7 °F /  21.5 °C 51.4 °F /  10.8 °C 29.94in /  1013.8hPa NW 1.3mph /  2.1km/h 6mph /  9.7km/h 50.4% 0.00in /  0mm 643 W/m2
08:59 70.9 °F /  21.6 °C 51.4 °F /  10.8 °C 29.94in /  1013.8hPa NNW 0.5mph /  0.8km/h 6mph /  9.7km/h 50.1% 0.00in /  0mm 656 W/m2
09:04 70.8 °F /  21.6 °C 51.4 °F /  10.8 °C 29.95in /  1014.1hPa NNW 0.3mph /  0.5km/h 6mph /  9.7km/h 50.2% 0.00in /  0mm 666 W/m2
09:09 71 °F /  21.7 °C 51.7 °F /  10.9 °C 29.95in /  1014.1hPa North 0.7mph /  1.1km/h 4mph /  6.4km/h 50.6% 0.00in /  0mm 684 W/m2
09:14 71.2 °F /  21.8 °C 52.5 °F /  11.4 °C 29.95in /  1014.1hPa North 0.4mph /  0.6km/h 4mph /  6.4km/h 51.5% 0.00in /  0mm 701 W/m2
09:19 71.3 °F /  21.8 °C 51.8 °F /  11 °C 29.95in /  1014.1hPa NW 1.3mph /  2.1km/h 5mph /  8km/h 50.2% 0.00in /  0mm 714 W/m2
09:24 71.3 °F /  21.8 °C 51.4 °F /  10.8 °C 29.95in /  1014.1hPa WNW 0.7mph /  1.1km/h 5mph /  8km/h 49.4% 0.00in /  0mm 726 W/m2
09:29 71.7 °F /  22.1 °C 53 °F /  11.7 °C 29.95in /  1014.1hPa WNW 0.7mph /  1.1km/h 5mph /  8km/h 51.7% 0.00in /  0mm 744 W/m2
09:34 72.3 °F /  22.4 °C 53.3 °F /  11.8 °C 29.94in /  1013.8hPa WNW 0.4mph /  0.6km/h 5mph /  8km/h 51.2% 0.00in /  0mm 759 W/m2
09:39 72.8 °F /  22.7 °C 53.2 °F /  11.8 °C 29.95in /  1014.1hPa WNW 1.3mph /  2.1km/h 6mph /  9.7km/h 50.2% 0.00in /  0mm 765 W/m2
09:44 73 °F /  22.8 °C 52.3 °F /  11.3 °C 29.95in /  1014.1hPa WNW 1mph /  1.6km/h 6mph /  9.7km/h 48.2% 0.00in /  0mm 779 W/m2
09:49 73.2 °F /  22.9 °C 53.4 °F /  11.9 °C 29.95in /  1014.1hPa WNW 0.4mph /  0.6km/h 6mph /  9.7km/h 49.9% 0.00in /  0mm 793 W/m2
09:54 73.8 °F /  23.2 °C 54 °F /  12.2 °C 29.94in /  1013.8hPa WNW 1mph /  1.6km/h 6mph /  9.7km/h 50.1% 0.00in /  0mm 809 W/m2
09:59 74.4 °F /  23.6 °C 54.3 °F /  12.4 °C 29.95in /  1014.1hPa WNW 0.9mph /  1.4km/h 6mph /  9.7km/h 49.6% 0.00in /  0mm 814 W/m2
10:04 74.8 °F /  23.8 °C 52.8 °F /  11.6 °C 29.95in /  1014.1hPa WNW 1.9mph /  3.1km/h 7mph /  11.3km/h 46.3% 0.00in /  0mm 831 W/m2
10:09 74.7 °F /  23.7 °C 52.9 °F /  11.6 °C 29.94in /  1013.8hPa WSW 1.4mph /  2.3km/h 7mph /  11.3km/h 46.5% 0.00in /  0mm 842 W/m2
10:14 74.9 °F /  23.8 °C 53.5 °F /  11.9 °C 29.94in /  1013.8hPa WNW 1.6mph /  2.6km/h 9mph /  14.5km/h 47.4% 0.00in /  0mm 856 W/m2
10:19 75.2 °F /  24 °C 53.4 °F /  11.9 °C 29.94in /  1013.8hPa WNW 2.5mph /  4km/h 9mph /  14.5km/h 46.6% 0.00in /  0mm 861 W/m2
10:24 75.5 °F /  24.2 °C 53.4 °F /  11.9 °C 29.94in /  1013.8hPa West 1.3mph /  2.1km/h 9mph /  14.5km/h 46.1% 0.00in /  0mm 870 W/m2
10:29 75.8 °F /  24.3 °C 53.1 °F /  11.7 °C 29.94in /  1013.8hPa WNW 1.6mph /  2.6km/h 9mph /  14.5km/h 45.3% 0.00in /  0mm 875 W/m2
10:34 76 °F /  24.4 °C 52.2 °F /  11.2 °C 29.94in /  1013.8hPa WNW 2.9mph /  4.7km/h 13mph /  20.9km/h 43.6% 0.00in /  0mm 888 W/m2
10:39 76 °F /  24.4 °C 53.5 °F /  11.9 °C 29.93in /  1013.4hPa WNW 1.2mph /  1.9km/h 13mph /  20.9km/h 45.6% 0.00in /  0mm 900 W/m2
10:44 76.2 °F /  24.6 °C 51.1 °F /  10.6 °C 29.94in /  1013.8hPa North 0.5mph /  0.8km/h 13mph /  20.9km/h 41.5% 0.00in /  0mm 940 W/m2
10:49 76.4 °F /  24.7 °C 51.4 °F /  10.8 °C 29.93in /  1013.4hPa Calm   13mph /  20.9km/h 41.7% 0.00in /  0mm 962 W/m2
10:54 76.3 °F /  24.6 °C 50.9 °F /  10.5 °C 29.93in /  1013.4hPa North 0.1mph /  0.2km/h 13mph /  20.9km/h 41% 0.00in /  0mm 972 W/m2
10:59 75.9 °F /  24.4 °C 51.2 °F /  10.7 °C 29.93in /  1013.4hPa ENE 1.4mph /  2.3km/h 13mph /  20.9km/h 42.1% 0.00in /  0mm 940 W/m2
11:04 75.7 °F /  24.3 °C 48.8 °F /  9.3 °C 29.93in /  1013.4hPa NW 2mph /  3.2km/h 13mph /  20.9km/h 38.9% 0.00in /  0mm 953 W/m2
11:09 75.9 °F /  24.4 °C 46.6 °F /  8.1 °C 29.93in /  1013.4hPa WNW 3.8mph /  6.1km/h 15mph /  24.1km/h 35.4% 0.00in /  0mm 953 W/m2
11:14 75.9 °F /  24.4 °C 44.6 °F /  7 °C 29.93in /  1013.4hPa WNW 5.6mph /  9km/h 15mph /  24.1km/h 32.8% 0.00in /  0mm 956 W/m2
11:19 75.9 °F /  24.4 °C 46.4 °F /  8 °C 29.93in /  1013.4hPa West 3.5mph /  5.6km/h 15mph /  24.1km/h 35.1% 0.00in /  0mm 962 W/m2
11:24 76.1 °F /  24.5 °C 47.6 °F /  8.7 °C 29.93in /  1013.4hPa WNW 4.3mph /  6.9km/h 15mph /  24.1km/h 36.5% 0.00in /  0mm 962 W/m2
11:29 76.3 °F /  24.6 °C 48.6 °F /  9.2 °C 29.93in /  1013.4hPa West 0.9mph /  1.4km/h 15mph /  24.1km/h 37.7% 0.00in /  0mm 969 W/m2
11:34 76.7 °F /  24.8 °C 48.5 °F /  9.2 °C 29.93in /  1013.4hPa WNW 3.1mph /  5km/h 15mph /  24.1km/h 37.1% 0.00in /  0mm 977 W/m2
11:39 76.6 °F /  24.8 °C 47.7 °F /  8.7 °C 29.93in /  1013.4hPa WNW 3.7mph /  6km/h 12mph /  19.3km/h 36% 0.00in /  0mm 997 W/m2
11:44 76.5 °F /  24.7 °C 47.9 °F /  8.8 °C 29.92in /  1013.1hPa West 4.7mph /  7.6km/h 13mph /  20.9km/h 36.6% 0.00in /  0mm 1002 W/m2
11:49 76.7 °F /  24.8 °C 48 °F /  8.9 °C 29.92in /  1013.1hPa WNW 2.7mph /  4.3km/h 13mph /  20.9km/h 36.4% 0.00in /  0mm 995 W/m2
11:54 76.8 °F /  24.9 °C 46.6 °F /  8.1 °C 29.93in /  1013.4hPa West 2.4mph /  3.9km/h 13mph /  20.9km/h 34.4% 0.00in /  0mm 993 W/m2
11:59 76.8 °F /  24.9 °C 46.6 °F /  8.1 °C 29.93in /  1013.4hPa West 2.2mph /  3.5km/h 13mph /  20.9km/h 34.4% 0.00in /  0mm 997 W/m2
12:00 76.8 °F /  24.9 °C 47.8 °F /  8.8 °C 29.92in /  1013.1hPa NW 2mph /  3.2km/h 13mph /  20.9km/h 36% 0.00in /  0mm 997 W/m2
12:09 77.1 °F /  25.1 °C 48.2 °F /  9 °C 29.92in /  1013.1hPa West 1.3mph /  2.1km/h 7mph /  11.3km/h 36.1% 0.00in /  0mm 1023 W/m2
12:14 77.3 °F /  25.2 °C 49.1 °F /  9.5 °C 29.92in /  1013.1hPa NW 3.2mph /  5.1km/h 10mph /  16.1km/h 37.1% 0.00in /  0mm 1028 W/m2
12:19 77.5 °F /  25.3 °C 49.2 °F /  9.6 °C 29.92in /  1013.1hPa NNW 2.5mph /  4km/h 11mph /  17.7km/h 37.1% 0.00in /  0mm 1016 W/m2
12:24 77.3 °F /  25.2 °C 46.8 °F /  8.2 °C 29.92in /  1013.1hPa ENE 0.8mph /  1.3km/h 11mph /  17.7km/h 34% 0.00in /  0mm 1014 W/m2
12:29 77 °F /  25 °C 47.2 °F /  8.4 °C 29.92in /  1013.1hPa NW 1.1mph /  1.8km/h 11mph /  17.7km/h 34.9% 0.00in /  0mm 1011 W/m2
12:34 77 °F /  25 °C 47.2 °F /  8.4 °C 29.92in /  1013.1hPa WSW 1.9mph /  3.1km/h 11mph /  17.7km/h 34.9% 0.00in /  0mm 1055 W/m2
12:39 76.8 °F /  24.9 °C 48 °F /  8.9 °C 29.92in /  1013.1hPa West 0.7mph /  1.1km/h 11mph /  17.7km/h 36.3% 0.00in /  0mm 1088 W/m2
12:44 77.2 °F /  25.1 °C 48.1 °F /  8.9 °C 29.92in /  1013.1hPa WSW 2.3mph /  3.7km/h 11mph /  17.7km/h 35.9% 0.00in /  0mm 1041 W/m2
12:49 77.6 °F /  25.3 °C 49.1 °F /  9.5 °C 29.92in /  1013.1hPa NW 1.1mph /  1.8km/h 11mph /  17.7km/h 36.8% 0.00in /  0mm 1041 W/m2
12:54 78.1 °F /  25.6 °C 47.5 °F /  8.6 °C 29.92in /  1013.1hPa WNW 1.7mph /  2.7km/h 11mph /  17.7km/h 34.1% 0.00in /  0mm 1035 W/m2
12:59 78.2 °F /  25.7 °C 48.3 °F /  9.1 °C 29.92in /  1013.1hPa West 1.7mph /  2.7km/h 13mph /  20.9km/h 34.9% 0.00in /  0mm 1056 W/m2
13:04 77.8 °F /  25.4 °C 48.3 °F /  9.1 °C 29.92in /  1013.1hPa NW 2.7mph /  4.3km/h 13mph /  20.9km/h 35.5% 0.00in /  0mm 1028 W/m2
13:09 77.6 °F /  25.3 °C 48.5 °F /  9.2 °C 29.92in /  1013.1hPa WNW 1.9mph /  3.1km/h 10mph /  16.1km/h 35.9% 0.00in /  0mm 1025 W/m2
13:14 77.7 °F /  25.4 °C 49 °F /  9.4 °C 29.92in /  1013.1hPa West 0.8mph /  1.3km/h 10mph /  16.1km/h 36.5% 0.00in /  0mm 1018 W/m2
13:19 77.9 °F /  25.5 °C 48.4 °F /  9.1 °C 29.91in /  1012.8hPa WSW 2.1mph /  3.4km/h 10mph /  16.1km/h 35.4% 0.00in /  0mm 1020 W/m2
13:24 78.1 °F /  25.6 °C 48.5 °F /  9.2 °C 29.91in /  1012.8hPa WNW 3.6mph /  5.8km/h 10mph /  16.1km/h 35.4% 0.00in /  0mm 1020 W/m2
13:29 78 °F /  25.6 °C 49 °F /  9.4 °C 29.91in /  1012.8hPa WNW 1.5mph /  2.4km/h 10mph /  16.1km/h 36.1% 0.00in /  0mm 1018 W/m2
13:34 78.2 °F /  25.7 °C 49.9 °F /  9.9 °C 29.91in /  1012.8hPa West 3mph /  4.8km/h 11mph /  17.7km/h 37.2% 0.00in /  0mm 1018 W/m2
13:39 78.3 °F /  25.7 °C 49.3 °F /  9.6 °C 29.91in /  1012.8hPa WNW 2.4mph /  3.9km/h 11mph /  17.7km/h 36.2% 0.00in /  0mm 1016 W/m2
13:44 78.4 °F /  25.8 °C 48.3 °F /  9.1 °C 29.91in /  1012.8hPa West 1.7mph /  2.7km/h 11mph /  17.7km/h 34.7% 0.00in /  0mm 1011 W/m2
13:49 78.5 °F /  25.8 °C 50.8 °F /  10.4 °C 29.91in /  1012.8hPa WNW 0.8mph /  1.3km/h 11mph /  17.7km/h 38% 0.00in /  0mm 1005 W/m2
13:54 78.8 °F /  26 °C 49.2 °F /  9.6 °C 29.90in /  1012.4hPa NW 1.1mph /  1.8km/h 11mph /  17.7km/h 35.4% 0.00in /  0mm 1004 W/m2
13:59 78.7 °F /  25.9 °C 48.3 °F /  9.1 °C 29.91in /  1012.8hPa WNW 3.6mph /  5.8km/h 11mph /  17.7km/h 34.5% 0.00in /  0mm 998 W/m2
14:04 78.3 °F /  25.7 °C 47.9 °F /  8.8 °C 29.91in /  1012.8hPa NW 4.2mph /  6.8km/h 13mph /  20.9km/h 34.3% 0.00in /  0mm 997 W/m2
14:09 78 °F /  25.6 °C 48.1 °F /  8.9 °C 29.90in /  1012.4hPa WSW 1.8mph /  2.9km/h 13mph /  20.9km/h 34.8% 0.00in /  0mm 991 W/m2
14:14 78 °F /  25.6 °C 49.9 °F /  9.9 °C 29.90in /  1012.4hPa NW 2.6mph /  4.2km/h 13mph /  20.9km/h 37.3% 0.00in /  0mm 984 W/m2
14:19 78.2 °F /  25.7 °C 49.6 °F /  9.8 °C 29.90in /  1012.4hPa West 3.2mph /  5.1km/h 13mph /  20.9km/h 36.7% 0.00in /  0mm 977 W/m2
14:24 78.3 °F /  25.7 °C 49.1 °F /  9.5 °C 29.90in /  1012.4hPa West 1.2mph /  1.9km/h 13mph /  20.9km/h 36% 0.00in /  0mm 976 W/m2
14:29 78.5 °F /  25.8 °C 51 °F /  10.6 °C 29.90in /  1012.4hPa WNW 1.4mph /  2.3km/h 13mph /  20.9km/h 38.4% 0.00in /  0mm 979 W/m2
14:34 78.8 °F /  26 °C 49.7 °F /  9.8 °C 29.90in /  1012.4hPa West 2.6mph /  4.2km/h 13mph /  20.9km/h 36.2% 0.00in /  0mm 967 W/m2
14:39 78.4 °F /  25.8 °C 48.9 °F /  9.4 °C 29.90in /  1012.4hPa WNW 3.1mph /  5km/h 13mph /  20.9km/h 35.4% 0.00in /  0mm 954 W/m2
14:44 78.2 °F /  25.7 °C 48.6 °F /  9.2 °C 29.90in /  1012.4hPa WNW 3.7mph /  6km/h 13mph /  20.9km/h 35.3% 0.00in /  0mm 946 W/m2
14:49 78.3 °F /  25.7 °C 48.1 °F /  8.9 °C 29.90in /  1012.4hPa NW 0.2mph /  0.3km/h 13mph /  20.9km/h 34.6% 0.00in /  0mm 939 W/m2
14:54 78.1 °F /  25.6 °C 46.9 °F /  8.3 °C 29.89in /  1012.1hPa NW 0.1mph /  0.2km/h 13mph /  20.9km/h 33.3% 0.00in /  0mm 935 W/m2
14:59 77.9 °F /  25.5 °C 48.4 °F /  9.1 °C 29.89in /  1012.1hPa WNW 1.7mph /  2.7km/h 13mph /  20.9km/h 35.5% 0.00in /  0mm 925 W/m2
15:04 78 °F /  25.6 °C 49.1 °F /  9.5 °C 29.89in /  1012.1hPa WNW 2.6mph /  4.2km/h 13mph /  20.9km/h 36.1% 0.00in /  0mm 918 W/m2
15:09 78.2 °F /  25.7 °C 47.8 °F /  8.8 °C 29.89in /  1012.1hPa WNW 2.6mph /  4.2km/h 10mph /  16.1km/h 34.2% 0.00in /  0mm 912 W/m2
15:14 78.5 °F /  25.8 °C 49 °F /  9.4 °C 29.89in /  1012.1hPa WNW 1.4mph /  2.3km/h 10mph /  16.1km/h 35.5% 0.00in /  0mm 904 W/m2
15:19 78.8 °F /  26 °C 48.3 °F /  9.1 °C 29.89in /  1012.1hPa WNW 1.3mph /  2.1km/h 10mph /  16.1km/h 34.3% 0.00in /  0mm 889 W/m2
15:24 79 °F /  26.1 °C 48.9 °F /  9.4 °C 29.89in /  1012.1hPa WNW 1.9mph /  3.1km/h 11mph /  17.7km/h 34.9% 0.00in /  0mm 879 W/m2
15:29 79 °F /  26.1 °C 47.9 °F /  8.8 °C 29.89in /  1012.1hPa WNW 3.3mph /  5.3km/h 11mph /  17.7km/h 33.5% 0.00in /  0mm 867 W/m2
15:34 78.8 °F /  26 °C 47.2 °F /  8.4 °C 29.89in /  1012.1hPa NW 2.1mph /  3.4km/h 11mph /  17.7km/h 32.9% 0.00in /  0mm 854 W/m2
15:39 78.8 °F /  26 °C 47.6 °F /  8.7 °C 29.89in /  1012.1hPa NW 1.3mph /  2.1km/h 6mph /  9.7km/h 33.4% 0.00in /  0mm 846 W/m2
15:44 78.9 °F /  26.1 °C 48.3 °F /  9.1 °C 29.89in /  1012.1hPa NW 2.2mph /  3.5km/h 9mph /  14.5km/h 34.2% 0.00in /  0mm 835 W/m2
15:49 78.9 °F /  26.1 °C 46.3 °F /  7.9 °C 29.89in /  1012.1hPa WNW 1.4mph /  2.3km/h 9mph /  14.5km/h 31.8% 0.00in /  0mm 821 W/m2
15:54 78.8 °F /  26 °C 47.9 °F /  8.8 °C 29.89in /  1012.1hPa WNW 1.2mph /  1.9km/h 9mph /  14.5km/h 33.8% 0.00in /  0mm 810 W/m2
16:04 78.9 °F /  26.1 °C 48.2 °F /  9 °C 29.89in /  1012.1hPa Calm     34% 0.00in /  0mm 772 W/m2
16:09 78.9 °F /  26.1 °C 48.8 °F /  9.3 °C 29.89in /  1012.1hPa NW 1.5mph /  2.4km/h 7mph /  11.3km/h 34.8% 0.00in /  0mm 773 W/m2
16:14 78.8 °F /  26 °C 46.8 °F /  8.2 °C 29.89in /  1012.1hPa North 1.1mph /  1.8km/h 9mph /  14.5km/h 32.3% 0.00in /  0mm 763 W/m2
16:19 78.4 °F /  25.8 °C 46.7 °F /  8.2 °C 29.89in /  1012.1hPa NW 0.3mph /  0.5km/h 9mph /  14.5km/h 32.7% 0.00in /  0mm 47 W/m2
16:24 78.1 °F /  25.6 °C 46 °F /  7.8 °C 29.89in /  1012.1hPa West 2.2mph /  3.5km/h 9mph /  14.5km/h 32.2% 0.00in /  0mm 46 W/m2
16:29 78 °F /  25.6 °C 47 °F /  8.3 °C 29.89in /  1012.1hPa West 0.9mph /  1.4km/h 9mph /  14.5km/h 33.6% 0.00in /  0mm 44 W/m2
16:34 77.9 °F /  25.5 °C 46.8 °F /  8.2 °C 29.89in /  1012.1hPa WSW 1.1mph /  1.8km/h 9mph /  14.5km/h 33.4% 0.00in /  0mm 44 W/m2
16:39 77.8 °F /  25.4 °C 45.9 °F /  7.7 °C 29.89in /  1012.1hPa WSW 0.5mph /  0.8km/h 5mph /  8km/h 32.4% 0.00in /  0mm 44 W/m2
16:44 77.7 °F /  25.4 °C 48 °F /  8.9 °C 29.89in /  1012.1hPa West 0.9mph /  1.4km/h 5mph /  8km/h 35.1% 0.00in /  0mm 42 W/m2
16:49 77.7 °F /  25.4 °C 49.4 °F /  9.7 °C 29.89in /  1012.1hPa WNW 0.7mph /  1.1km/h 5mph /  8km/h 37% 0.00in /  0mm 42 W/m2
16:54 77.5 °F /  25.3 °C 48.5 °F /  9.2 °C 29.89in /  1012.1hPa NW 1.4mph /  2.3km/h 11mph /  17.7km/h 36% 0.00in /  0mm 42 W/m2
16:59 77.5 °F /  25.3 °C 49.2 °F /  9.6 °C 29.89in /  1012.1hPa West 1.9mph /  3.1km/h 11mph /  17.7km/h 37% 0.00in /  0mm 42 W/m2
17:04 77.5 °F /  25.3 °C 48.8 °F /  9.3 °C 29.89in /  1012.1hPa NW 1.4mph /  2.3km/h 11mph /  17.7km/h 36.5% 0.00in /  0mm 40 W/m2
17:09 77.5 °F /  25.3 °C 49.1 °F /  9.5 °C 29.89in /  1012.1hPa West 1.7mph /  2.7km/h 9mph /  14.5km/h 36.9% 0.00in /  0mm 40 W/m2
17:14 77.5 °F /  25.3 °C 48.3 °F /  9.1 °C 29.89in /  1012.1hPa West 1.6mph /  2.6km/h 9mph /  14.5km/h 35.8% 0.00in /  0mm 51 W/m2
17:19 77.4 °F /  25.2 °C 48.4 °F /  9.1 °C 29.89in /  1012.1hPa West 0.4mph /  0.6km/h 9mph /  14.5km/h 36.1% 0.00in /  0mm 65 W/m2
17:24 77.2 °F /  25.1 °C 48.8 °F /  9.3 °C 29.89in /  1012.1hPa WNW 1.6mph /  2.6km/h 9mph /  14.5km/h 36.8% 0.00in /  0mm 74 W/m2
17:29 77.1 °F /  25.1 °C 48.3 °F /  9.1 °C 29.89in /  1012.1hPa West 1.6mph /  2.6km/h 9mph /  14.5km/h 36.3% 0.00in /  0mm 84 W/m2
17:34 77 °F /  25 °C 49.2 °F /  9.6 °C 29.89in /  1012.1hPa West 1.7mph /  2.7km/h 9mph /  14.5km/h 37.6% 0.00in /  0mm 81 W/m2
17:39 77.1 °F /  25.1 °C 49.6 °F /  9.8 °C 29.89in /  1012.1hPa WNW 3.3mph /  5.3km/h 11mph /  17.7km/h 38.1% 0.00in /  0mm 83 W/m2
17:44 77.3 °F /  25.2 °C 49 °F /  9.4 °C 29.89in /  1012.1hPa WSW 2mph /  3.2km/h 11mph /  17.7km/h 37.1% 0.00in /  0mm 77 W/m2
17:49 77.5 °F /  25.3 °C 50.4 °F /  10.2 °C 29.89in /  1012.1hPa West 0.3mph /  0.5km/h 11mph /  17.7km/h 38.8% 0.00in /  0mm 53 W/m2
17:54 77.6 °F /  25.3 °C 50.1 °F /  10.1 °C 29.89in /  1012.1hPa WNW 1.9mph /  3.1km/h 11mph /  17.7km/h 38.1% 0.00in /  0mm 42 W/m2
17:59 77.6 °F /  25.3 °C 48.4 °F /  9.1 °C 29.89in /  1012.1hPa West 1.2mph /  1.9km/h 11mph /  17.7km/h 35.8% 0.00in /  0mm 40 W/m2
18:04 77.5 °F /  25.3 °C 48.1 °F /  8.9 °C 29.90in /  1012.4hPa West 3.5mph /  5.6km/h 11mph /  17.7km/h 35.6% 0.00in /  0mm 39 W/m2
18:09 77.2 °F /  25.1 °C 48.5 °F /  9.2 °C 29.90in /  1012.4hPa West 1.9mph /  3.1km/h 10mph /  16.1km/h 36.4% 0.00in /  0mm 37 W/m2
18:14 77 °F /  25 °C 47.8 °F /  8.8 °C 29.90in /  1012.4hPa WNW 1.2mph /  1.9km/h 10mph /  16.1km/h 35.7% 0.00in /  0mm 35 W/m2
18:19 76.8 °F /  24.9 °C 47.5 °F /  8.6 °C 29.90in /  1012.4hPa WNW 2.9mph /  4.7km/h 10mph /  16.1km/h 35.4% 0.00in /  0mm 33 W/m2
18:24 76.7 °F /  24.8 °C 47.4 °F /  8.6 °C 29.90in /  1012.4hPa WNW 0.6mph /  1km/h 10mph /  16.1km/h 35.5% 0.00in /  0mm 33 W/m2
18:29 76.7 °F /  24.8 °C 47.7 °F /  8.7 °C 29.90in /  1012.4hPa WNW 0.5mph /  0.8km/h 10mph /  16.1km/h 35.9% 0.00in /  0mm 33 W/m2
18:34 76.7 °F /  24.8 °C 47.2 °F /  8.4 °C 29.90in /  1012.4hPa WNW 1.1mph /  1.8km/h 10mph /  16.1km/h 35.2% 0.00in /  0mm 32 W/m2
18:39 76.6 °F /  24.8 °C 46.7 °F /  8.2 °C 29.90in /  1012.4hPa WNW 1.9mph /  3.1km/h 7mph /  11.3km/h 34.7% 0.00in /  0mm 32 W/m2
18:44 76.4 °F /  24.7 °C 47 °F /  8.3 °C 29.90in /  1012.4hPa WNW 2.3mph /  3.7km/h 9mph /  14.5km/h 35.3% 0.00in /  0mm 32 W/m2
18:49 76.2 °F /  24.6 °C 46.9 °F /  8.3 °C 29.90in /  1012.4hPa WNW 2.1mph /  3.4km/h 9mph /  14.5km/h 35.4% 0.00in /  0mm 30 W/m2
18:54 76 °F /  24.4 °C 46.2 °F /  7.9 °C 29.90in /  1012.4hPa WNW 3.1mph /  5km/h 10mph /  16.1km/h 34.8% 0.00in /  0mm 28 W/m2
18:59 75.8 °F /  24.3 °C 45.3 °F /  7.4 °C 29.91in /  1012.8hPa WNW 2.6mph /  4.2km/h 10mph /  16.1km/h 33.8% 0.00in /  0mm 28 W/m2
19:04 75.6 °F /  24.2 °C 45.7 °F /  7.6 °C 29.91in /  1012.8hPa West 2.6mph /  4.2km/h 10mph /  16.1km/h 34.6% 0.00in /  0mm 28 W/m2
19:09 75.3 °F /  24.1 °C 46 °F /  7.8 °C 29.90in /  1012.4hPa WNW 0.6mph /  1km/h 7mph /  11.3km/h 35.3% 0.00in /  0mm 26 W/m2
19:14 75.2 °F /  24 °C 46.5 °F /  8.1 °C 29.91in /  1012.8hPa WNW 1.7mph /  2.7km/h 7mph /  11.3km/h 36% 0.00in /  0mm 26 W/m2
19:19 75 °F /  23.9 °C 45.8 °F /  7.7 °C 29.91in /  1012.8hPa WNW 0.7mph /  1.1km/h 7mph /  11.3km/h 35.3% 0.00in /  0mm 25 W/m2
19:24 74.9 °F /  23.8 °C 46.1 °F /  7.8 °C 29.91in /  1012.8hPa NW 0.9mph /  1.4km/h 7mph /  11.3km/h 35.9% 0.00in /  0mm 25 W/m2
19:29 74.7 °F /  23.7 °C 45.5 °F /  7.5 °C 29.91in /  1012.8hPa NW 1.6mph /  2.6km/h 7mph /  11.3km/h 35.3% 0.00in /  0mm 23 W/m2
19:34 74.6 °F /  23.7 °C 45.8 °F /  7.7 °C 29.91in /  1012.8hPa NW 0.2mph /  0.3km/h 7mph /  11.3km/h 35.9% 0.00in /  0mm 19 W/m2
19:39 74.4 °F /  23.6 °C 46 °F /  7.8 °C 29.91in /  1012.8hPa Calm   1mph /  1.6km/h 36.3% 0.00in /  0mm 19 W/m2
19:44 74.2 °F /  23.4 °C 46.3 °F /  7.9 °C 29.92in /  1013.1hPa Calm   1mph /  1.6km/h 37% 0.00in /  0mm 16 W/m2
19:49 74 °F /  23.3 °C 46.1 °F /  7.8 °C 29.91in /  1012.8hPa Calm   1mph /  1.6km/h 37% 0.00in /  0mm 16 W/m2
19:54 73.8 °F /  23.2 °C 46.4 °F /  8 °C 29.92in /  1013.1hPa Calm   1mph /  1.6km/h 37.6% 0.00in /  0mm 16 W/m2
19:58 73.6 °F /  23.1 °C 46.5 °F /  8.1 °C 29.92in /  1013.1hPa Calm   1mph /  1.6km/h 38% 0.00in /  0mm 14 W/m2
20:00 73.5 °F /  23.1 °C 46.4 °F /  8 °C 29.91in /  1012.8hPa Calm   1mph /  1.6km/h 38% 0.00in /  0mm 11 W/m2
20:09 73.1 °F /  22.8 °C 46.5 °F /  8.1 °C 29.92in /  1013.1hPa Calm     38.7% 0.00in /  0mm 11 W/m2
20:14 72.9 °F /  22.7 °C 46.7 °F /  8.2 °C 29.92in /  1013.1hPa Calm     39.4% 0.00in /  0mm 7 W/m2
20:19 72.5 °F /  22.5 °C 47 °F /  8.3 °C 29.92in /  1013.1hPa Calm     40.3% 0.00in /  0mm 0 W/m2
20:24 72.1 °F /  22.3 °C 47.1 °F /  8.4 °C 29.92in /  1013.1hPa Calm     41% 0.00in /  0mm 0 W/m2
20:29 71.7 °F /  22.1 °C 46.8 °F /  8.2 °C 29.92in /  1013.1hPa Calm     41% 0.00in /  0mm 0 W/m2
20:34 71.4 °F /  21.9 °C 47 °F /  8.3 °C 29.92in /  1013.1hPa Calm     41.9% 0.00in /  0mm 0 W/m2
20:39 71 °F /  21.7 °C 47.4 °F /  8.6 °C 29.92in /  1013.1hPa Calm     43% 0.00in /  0mm 0 W/m2
20:44 70.6 °F /  21.4 °C 47.5 °F /  8.6 °C 29.92in /  1013.1hPa Calm     43.7% 0.00in /  0mm 0 W/m2
20:49 70.3 °F /  21.3 °C 47.6 °F /  8.7 °C 29.93in /  1013.4hPa Calm     44.3% 0.00in /  0mm 0 W/m2
20:54 70 °F /  21.1 °C 48.2 °F /  9 °C 29.93in /  1013.4hPa Calm     45.8% 0.00in /  0mm 0 W/m2
20:59 69.6 °F /  20.9 °C 48.5 °F /  9.2 °C 29.93in /  1013.4hPa Calm     47% 0.00in /  0mm 0 W/m2
21:04 69.2 °F /  20.7 °C 48.5 °F /  9.2 °C 29.93in /  1013.4hPa Calm     47.6% 0.00in /  0mm 0 W/m2
21:09 68.9 °F /  20.5 °C 49.1 °F /  9.5 °C 29.93in /  1013.4hPa Calm     49.3% 0.00in /  0mm 0 W/m2
21:14 68.5 °F /  20.3 °C 49.5 °F /  9.7 °C 29.94in /  1013.8hPa Calm     50.7% 0.00in /  0mm 0 W/m2
21:19 68.1 °F /  20.1 °C 49.3 °F /  9.6 °C 29.94in /  1013.8hPa Calm     51% 0.00in /  0mm 0 W/m2
21:24 67.7 °F /  19.8 °C 48.9 °F /  9.4 °C 29.94in /  1013.8hPa Calm     51% 0.00in /  0mm 0 W/m2
21:29 67.3 °F /  19.6 °C 48.2 °F /  9 °C 29.94in /  1013.8hPa Calm     50.3% 0.00in /  0mm 0 W/m2
21:34 66.9 °F /  19.4 °C 48.4 °F /  9.1 °C 29.94in /  1013.8hPa Calm     51.3% 0.00in /  0mm 0 W/m2
21:39 66.5 °F /  19.2 °C 48.3 °F /  9.1 °C 29.95in /  1014.1hPa Calm     51.9% 0.00in /  0mm 0 W/m2
21:44 66.1 °F /  18.9 °C 47.9 °F /  8.8 °C 29.95in /  1014.1hPa Calm     51.8% 0.00in /  0mm 0 W/m2
21:49 65.8 °F /  18.8 °C 48.4 °F /  9.1 °C 29.95in /  1014.1hPa Calm     53.5% 0.00in /  0mm 0 W/m2
21:54 65.4 °F /  18.6 °C 48.5 °F /  9.2 °C 29.95in /  1014.1hPa Calm     54.3% 0.00in /  0mm 0 W/m2
21:59 65.1 °F /  18.4 °C 48.9 °F /  9.4 °C 29.95in /  1014.1hPa Calm     55.6% 0.00in /  0mm 0 W/m2
22:04 64.8 °F /  18.2 °C 49.2 °F /  9.6 °C 29.95in /  1014.1hPa Calm     56.9% 0.00in /  0mm 0 W/m2
22:09 64.6 °F /  18.1 °C 49.9 °F /  9.9 °C 29.95in /  1014.1hPa Calm     59% 0.00in /  0mm 0 W/m2
22:14 64.4 °F /  18 °C 49.7 °F /  9.8 °C 29.95in /  1014.1hPa Calm     59% 0.00in /  0mm 0 W/m2
22:19 64.1 °F /  17.8 °C 49.3 °F /  9.6 °C 29.96in /  1014.4hPa Calm     58.5% 0.00in /  0mm 0 W/m2
22:24 63.9 °F /  17.7 °C 48.9 °F /  9.4 °C 29.96in /  1014.4hPa NW 0.1mph /  0.2km/h 2mph /  3.2km/h 58.2% 0.00in /  0mm 0 W/m2
22:29 63.7 °F /  17.6 °C 48.6 °F /  9.2 °C 29.96in /  1014.4hPa Calm   2mph /  3.2km/h 58% 0.00in /  0mm 0 W/m2
22:34 63.5 °F /  17.5 °C 48.2 °F /  9 °C 29.96in /  1014.4hPa Calm   2mph /  3.2km/h 57.5% 0.00in /  0mm 0 W/m2
22:39 63.4 °F /  17.4 °C 47.9 °F /  8.8 °C 29.96in /  1014.4hPa Calm     57% 0.00in /  0mm 0 W/m2
22:44 63.3 °F /  17.4 °C 48 °F /  8.9 °C 29.96in /  1014.4hPa Calm     57.5% 0.00in /  0mm 0 W/m2
22:49 63.2 °F /  17.3 °C 47.7 °F /  8.7 °C 29.96in /  1014.4hPa Calm     57% 0.00in /  0mm 0 W/m2
22:54 63.1 °F /  17.3 °C 47.9 °F /  8.8 °C 29.96in /  1014.4hPa Calm     57.6% 0.00in /  0mm 0 W/m2
22:59 63.1 °F /  17.3 °C 48.1 °F /  8.9 °C 29.96in /  1014.4hPa Calm     58% 0.00in /  0mm 0 W/m2
23:04 63 °F /  17.2 °C 48.3 °F /  9.1 °C 29.96in /  1014.4hPa Calm     58.7% 0.00in /  0mm 0 W/m2
23:09 62.9 °F /  17.2 °C 48.4 °F /  9.1 °C 29.96in /  1014.4hPa Calm     59% 0.00in /  0mm 0 W/m2
23:14 62.8 °F /  17.1 °C 48.3 °F /  9.1 °C 29.96in /  1014.4hPa Calm     59% 0.00in /  0mm 0 W/m2
23:19 62.7 °F /  17.1 °C 48.2 °F /  9 °C 29.96in /  1014.4hPa Calm     59% 0.00in /  0mm 0 W/m2
23:24 62.6 °F /  17 °C 48.1 °F /  8.9 °C 29.96in /  1014.4hPa Calm     59% 0.00in /  0mm 0 W/m2
23:29 62.6 °F /  17 °C 48.5 °F /  9.2 °C 29.96in /  1014.4hPa Calm     59.9% 0.00in /  0mm 0 W/m2
23:34 62.6 °F /  17 °C 48.5 °F /  9.2 °C 29.96in /  1014.4hPa Calm     60% 0.00in /  0mm 0 W/m2
23:39 62.5 °F /  16.9 °C 48.5 °F /  9.2 °C 29.96in /  1014.4hPa Calm     60.2% 0.00in /  0mm 0 W/m2
23:44 62.5 °F /  16.9 °C 48.9 °F /  9.4 °C 29.96in /  1014.4hPa NW 0.1mph /  0.2km/h 1mph /  1.6km/h 61% 0.00in /  0mm 0 W/m2
23:49 62.4 °F /  16.9 °C 48.4 °F /  9.1 °C 29.96in /  1014.4hPa Calm   1mph /  1.6km/h 60.2% 0.00in /  0mm 0 W/m2
23:54 62.3 °F /  16.8 °C 48.3 °F /  9.1 °C 29.97in /  1014.8hPa Calm   1mph /  1.6km/h 60% 0.00in /  0mm 0 W/m2
23:59 62.2 °F /  16.8 °C 48.2 °F /  9 °C 29.97in /  1014.8hPa Calm   1mph /  1.6km/h 60% 0.00in /  0mm 0 W/m2
Hartford County Weather
Compliments of Weather Underground - 2 mb